createdAt,value
2018-10-21T00:02:06.657Z,17.10
2018-10-21T00:04:36.976Z,17.27
2018-10-21T00:07:07.351Z,13.97
2018-10-21T00:09:37.702Z,17.53
2018-10-21T00:12:08.410Z,16.43
2018-10-21T00:14:39.053Z,17.50
2018-10-21T00:17:09.275Z,19.70
2018-10-21T00:19:39.660Z,18.27
2018-10-21T00:22:10.057Z,22.20
2018-10-21T00:24:40.465Z,19.50
2018-10-21T00:27:11.034Z,19.63
2018-10-21T00:29:41.038Z,19.57
2018-10-21T00:32:11.390Z,19.97
2018-10-21T00:34:41.727Z,21.13
2018-10-21T00:37:12.209Z,22.20
2018-10-21T00:39:42.443Z,23.90
2018-10-21T00:42:12.595Z,26.87
2018-10-21T00:44:42.727Z,22.13
2018-10-21T00:47:13.229Z,24.97
2018-10-21T00:49:43.403Z,25.57
2018-10-21T00:52:14.202Z,21.13
2018-10-21T00:54:44.404Z,31.70
2018-10-21T00:57:14.736Z,27.43
2018-10-21T00:59:44.957Z,29.53
2018-10-21T01:02:15.323Z,28.23
2018-10-21T01:04:46.341Z,21.47
2018-10-21T01:07:17.075Z,22.50
2018-10-21T01:09:47.817Z,19.83
2018-10-21T01:12:18.129Z,21.63
2018-10-21T01:14:48.383Z,18.70
2018-10-21T01:17:18.802Z,21.63
2018-10-21T01:19:49.324Z,19.87
2018-10-21T01:22:20.027Z,25.53
2018-10-21T01:24:50.273Z,20.93
2018-10-21T01:27:20.645Z,22.87
2018-10-21T01:29:51.946Z,20.10
2018-10-21T01:32:22.247Z,20.80
2018-10-21T01:34:52.419Z,29.00
2018-10-21T01:37:22.910Z,23.23
2018-10-21T01:40:57.763Z,27.73
2018-10-21T01:43:31.633Z,21.50
2018-10-21T01:46:02.431Z,27.87
2018-10-21T01:48:33.305Z,29.53
2018-10-21T01:51:03.650Z,20.50
2018-10-21T01:53:33.909Z,21.80
2018-10-21T01:56:04.427Z,20.50
2018-10-21T01:58:34.710Z,20.47
2018-10-21T02:01:04.771Z,22.30
2018-10-21T02:03:35.060Z,24.17
2018-10-21T02:06:05.441Z,27.97
2018-10-21T02:08:35.874Z,28.37
2018-10-21T02:11:06.026Z,27.30
2018-10-21T02:13:36.322Z,28.23
2018-10-21T02:16:06.853Z,25.10
2018-10-21T02:18:37.046Z,27.03
2018-10-21T02:21:07.315Z,29.87
2018-10-21T02:23:37.718Z,31.37
2018-10-21T02:26:07.613Z,29.63
2018-10-21T02:28:37.496Z,25.57
2018-10-21T02:31:07.437Z,22.20
2018-10-21T02:33:37.826Z,25.93
2018-10-21T02:36:07.994Z,23.93
2018-10-21T02:38:37.975Z,25.83
2018-10-21T02:41:34.662Z,27.00
2018-10-21T02:44:05.632Z,26.03
2018-10-21T02:46:36.620Z,24.20
2018-10-21T02:49:07.409Z,25.03
2018-10-21T02:51:37.351Z,27.97
2018-10-21T02:54:07.812Z,29.30
2018-10-21T02:56:38.186Z,24.50
2018-10-21T02:59:08.364Z,22.97
2018-10-21T03:01:38.489Z,23.47
2018-10-21T03:04:08.791Z,27.73
2018-10-21T03:06:38.890Z,24.93
2018-10-21T03:09:09.754Z,27.67
2018-10-21T03:11:39.946Z,25.50
2018-10-21T03:14:10.004Z,23.80
2018-10-21T03:16:40.152Z,24.47
2018-10-21T03:19:10.185Z,25.27
2018-10-21T03:21:40.454Z,28.17
2018-10-21T03:24:10.499Z,21.13
2018-10-21T03:26:40.685Z,22.10
2018-10-21T03:29:11.035Z,27.43
2018-10-21T03:31:41.927Z,25.77
2018-10-21T03:34:11.809Z,22.87
2018-10-21T03:36:48.792Z,24.27
2018-10-21T03:39:19.594Z,23.47
2018-10-21T03:41:49.673Z,22.93
2018-10-21T03:44:20.406Z,26.07
2018-10-21T03:46:50.406Z,27.73
2018-10-21T03:49:21.301Z,27.87
2018-10-21T03:51:51.119Z,28.90
2018-10-21T03:54:21.837Z,25.30
2018-10-21T03:56:51.661Z,28.70
2018-10-21T03:59:22.325Z,24.70
2018-10-21T04:01:52.597Z,32.30
2018-10-21T04:04:23.166Z,25.13
2018-10-21T04:06:53.505Z,32.13
2018-10-21T04:09:25.288Z,24.77
2018-10-21T04:11:55.380Z,27.00
2018-10-21T04:14:25.432Z,32.80
2018-10-21T04:16:55.752Z,29.37
2018-10-21T04:19:25.922Z,26.83
2018-10-21T04:21:56.199Z,30.60
2018-10-21T04:24:28.022Z,30.27
2018-10-21T04:26:58.518Z,27.83
2018-10-21T04:29:29.286Z,28.77
2018-10-21T04:31:59.422Z,26.03
2018-10-21T04:34:29.433Z,22.83
2018-10-21T04:37:08.974Z,24.53
2018-10-21T04:39:49.677Z,35.13
2018-10-21T04:42:19.727Z,25.47
2018-10-21T04:44:49.666Z,29.57
2018-10-21T04:47:20.169Z,27.33
2018-10-21T04:49:50.143Z,29.83
2018-10-21T04:52:22.100Z,27.87
2018-10-21T04:54:52.685Z,31.07
2018-10-21T04:57:22.636Z,28.77
2018-10-21T04:59:53.042Z,22.13
2018-10-21T05:02:23.712Z,24.63
2018-10-21T05:04:53.697Z,27.43
2018-10-21T05:07:24.772Z,28.20
2018-10-21T05:09:54.600Z,28.07
2018-10-21T05:12:25.145Z,27.43
2018-10-21T05:14:55.137Z,29.07
2018-10-21T05:17:25.365Z,27.57
2018-10-21T05:19:55.649Z,28.27
2018-10-21T05:22:26.016Z,27.27
2018-10-21T05:24:56.004Z,29.93
2018-10-21T05:27:26.196Z,35.03
2018-10-21T05:29:56.518Z,33.63
2018-10-21T05:32:33.149Z,32.17
2018-10-21T05:35:04.033Z,43.37
2018-10-21T05:37:34.199Z,28.57
2018-10-21T05:40:04.372Z,29.27
2018-10-21T05:42:34.813Z,31.60
2018-10-21T05:45:08.157Z,34.30
2018-10-21T05:47:39.154Z,39.07
2018-10-21T05:50:11.140Z,32.00
2018-10-21T05:52:41.918Z,34.60
2018-10-21T05:55:12.921Z,34.13
2018-10-21T05:57:42.878Z,35.67
2018-10-21T06:00:16.614Z,32.73
2018-10-21T06:02:47.025Z,31.97
2018-10-21T06:05:34.265Z,33.77
2018-10-21T06:08:04.413Z,35.73
2018-10-21T06:10:35.245Z,32.90
2018-10-21T06:13:05.754Z,30.53
2018-10-21T06:15:36.316Z,35.93
2018-10-21T06:18:13.493Z,34.40
2018-10-21T06:20:46.048Z,43.97
2018-10-21T06:23:16.343Z,36.30
2018-10-21T06:25:47.068Z,40.70
2018-10-21T06:28:17.745Z,43.30
2018-10-21T06:30:47.881Z,33.80
2018-10-21T06:33:17.912Z,34.33
2018-10-21T06:35:48.131Z,35.00
2018-10-21T06:38:18.807Z,32.87
2018-10-21T06:40:49.337Z,35.53
2018-10-21T06:43:19.934Z,39.57
2018-10-21T06:45:50.288Z,41.47
2018-10-21T06:48:20.764Z,34.67
2018-10-21T06:50:50.682Z,37.17
2018-10-21T06:53:21.058Z,45.53
2018-10-21T06:55:51.804Z,37.00
2018-10-21T06:58:22.293Z,34.40
2018-10-21T07:00:52.863Z,38.57
2018-10-21T07:03:23.161Z,35.03
2018-10-21T07:06:25.296Z,41.87
2018-10-21T07:08:56.950Z,33.73
2018-10-21T07:11:27.214Z,34.97
2018-10-21T07:13:57.768Z,32.43
2018-10-21T07:16:28.203Z,35.03
2018-10-21T07:18:58.376Z,37.37
2018-10-21T07:21:28.740Z,33.63
2018-10-21T07:23:59.270Z,35.23
2018-10-21T07:26:29.915Z,42.73
2018-10-21T07:29:00.374Z,39.63
2018-10-21T07:31:30.700Z,39.90
2018-10-21T07:34:01.284Z,41.00
2018-10-21T07:36:31.268Z,43.03
2018-10-21T07:39:01.471Z,43.57
2018-10-21T07:41:31.767Z,45.60
2018-10-21T07:44:02.075Z,46.77
2018-10-21T07:46:32.777Z,47.83
2018-10-21T07:49:03.426Z,48.23
2018-10-21T07:51:33.421Z,45.83
2018-10-21T07:54:03.945Z,42.90
2018-10-21T07:56:34.029Z,44.23
2018-10-21T07:59:04.469Z,38.17
2018-10-21T08:01:35.110Z,43.03
2018-10-21T08:04:05.561Z,36.10
2018-10-21T08:06:46.451Z,34.87
2018-10-21T08:09:17.115Z,35.63
2018-10-21T08:11:47.906Z,33.37
2018-10-21T08:14:18.432Z,37.77
2018-10-21T08:16:48.657Z,33.40
2018-10-21T08:19:18.791Z,32.13
2018-10-21T08:21:48.919Z,32.60
2018-10-21T08:24:19.285Z,34.00
2018-10-21T08:26:49.779Z,31.53
2018-10-21T08:29:22.083Z,31.40
2018-10-21T08:31:52.709Z,31.97
2018-10-21T08:34:23.171Z,33.33
2018-10-21T08:36:53.430Z,32.20
2018-10-21T08:39:24.301Z,32.20
2018-10-21T08:41:54.782Z,30.63
2018-10-21T08:44:24.778Z,34.50
2018-10-21T08:46:55.469Z,33.37
2018-10-21T08:49:25.357Z,29.53
2018-10-21T08:51:57.838Z,30.03
2018-10-21T08:54:28.362Z,28.03
2018-10-21T08:56:58.421Z,30.97
2018-10-21T08:59:28.940Z,30.57
2018-10-21T09:01:58.991Z,25.17
2018-10-21T09:04:32.270Z,27.93
2018-10-21T09:07:10.304Z,27.00
2018-10-21T09:09:43.368Z,26.20
2018-10-21T09:12:13.775Z,27.37
2018-10-21T09:14:49.799Z,28.63
2018-10-21T09:17:28.000Z,27.10
2018-10-21T09:20:00.646Z,29.23
2018-10-21T09:22:31.199Z,27.30
2018-10-21T09:25:05.368Z,23.30
2018-10-21T09:27:40.029Z,22.63
2018-10-21T09:30:12.548Z,19.90
2018-10-21T09:32:44.402Z,19.40
2018-10-21T09:35:22.238Z,20.17
2018-10-21T09:37:57.188Z,21.40
2018-10-21T09:40:30.791Z,19.40
2018-10-21T09:43:04.418Z,19.40
2018-10-21T09:45:37.147Z,17.40
2018-10-21T09:48:10.686Z,19.90
2018-10-21T09:50:43.791Z,19.23
2018-10-21T09:53:15.649Z,21.93
2018-10-21T09:55:49.731Z,18.47
2018-10-21T09:58:21.522Z,18.83
2018-10-21T10:01:02.405Z,18.27
2018-10-21T10:03:33.823Z,15.43
2018-10-21T10:06:07.801Z,19.50
2018-10-21T10:08:42.696Z,18.20
2018-10-21T10:11:13.872Z,21.93
2018-10-21T10:13:47.541Z,16.03
2018-10-21T10:16:20.083Z,16.83
2018-10-21T10:18:53.536Z,15.37
2018-10-21T10:21:26.399Z,15.10
2018-10-21T10:24:01.256Z,12.67
2018-10-21T10:26:38.174Z,14.87
2018-10-21T10:29:15.372Z,17.47
2018-10-21T10:31:48.077Z,14.73
2018-10-21T10:34:20.229Z,10.43
2018-10-21T10:36:53.429Z,12.83
2018-10-21T10:39:25.298Z,14.50
2018-10-21T10:41:56.858Z,14.83
2018-10-21T10:44:32.974Z,11.87
2018-10-21T10:47:08.469Z,12.87
2018-10-21T10:49:45.850Z,11.63
2018-10-21T10:52:19.237Z,9.47
2018-10-21T10:54:56.450Z,10.97
2018-10-21T10:57:29.835Z,11.77
2018-10-21T11:00:03.357Z,10.17
2018-10-21T11:02:37.757Z,9.50
2018-10-21T11:05:11.068Z,11.57
2018-10-21T11:07:45.038Z,11.47
2018-10-21T11:10:16.000Z,10.83
2018-10-21T11:12:48.248Z,9.03
2018-10-21T11:15:21.166Z,11.80
2018-10-21T11:17:51.821Z,13.20
2018-10-21T11:20:26.930Z,9.37
2018-10-21T11:23:00.260Z,10.00
2018-10-21T11:25:46.919Z,7.33
2018-10-21T11:28:28.151Z,9.43
2018-10-21T11:31:00.121Z,7.67
2018-10-21T11:33:30.961Z,9.83
2018-10-21T11:36:03.014Z,9.20
2018-10-21T11:38:43.245Z,10.27
2018-10-21T11:41:16.391Z,8.40
2018-10-21T11:43:48.404Z,9.27
2018-10-21T11:46:24.945Z,9.20
2018-10-21T11:48:57.811Z,7.73
2018-10-21T11:51:30.880Z,6.87
2018-10-21T11:54:03.437Z,8.90
2018-10-21T11:56:39.966Z,6.57
2018-10-21T11:59:10.942Z,7.97
2018-10-21T12:01:42.827Z,6.97
2018-10-21T12:04:13.071Z,7.27
2018-10-21T12:06:47.036Z,7.67
2018-10-21T12:09:18.573Z,7.53
2018-10-21T12:11:51.606Z,5.83
2018-10-21T12:14:23.112Z,5.27
2018-10-21T12:16:54.402Z,7.23
2018-10-21T12:19:32.486Z,5.43
2018-10-21T12:22:04.413Z,7.17
2018-10-21T12:24:37.059Z,5.83
2018-10-21T12:27:12.763Z,7.77
2018-10-21T12:29:45.601Z,5.53
2018-10-21T12:32:19.099Z,7.57
2018-10-21T12:34:53.243Z,6.77
2018-10-21T12:37:25.703Z,8.23
2018-10-21T12:39:57.872Z,6.20
2018-10-21T12:42:28.527Z,7.10
2018-10-21T12:44:58.867Z,7.47
2018-10-21T12:47:35.806Z,6.23
2018-10-21T12:50:07.544Z,6.30
2018-10-21T12:52:43.444Z,5.95
2018-10-21T12:55:16.346Z,5.13
2018-10-21T13:00:40.603Z,5.37
2018-10-21T13:03:16.250Z,6.07
2018-10-21T13:05:46.682Z,4.80
2018-10-21T13:08:22.230Z,6.10
2018-10-21T13:10:53.503Z,5.77
2018-10-21T13:13:24.552Z,7.07
2018-10-21T13:16:01.591Z,6.60
2018-10-21T13:18:34.228Z,7.03
2018-10-21T13:21:08.397Z,5.43
2018-10-21T13:23:40.829Z,6.23
2018-10-21T13:26:14.464Z,6.03
2018-10-21T13:28:50.248Z,5.03
2018-10-21T13:31:29.178Z,7.90
2018-10-21T13:34:00.396Z,5.87
2018-10-21T13:36:33.968Z,6.27
2018-10-21T13:39:07.457Z,8.73
2018-10-21T13:41:39.769Z,4.87
2018-10-21T13:44:10.010Z,4.15
2018-10-21T13:46:41.322Z,4.70
2018-10-21T13:49:14.821Z,5.45
2018-10-21T13:51:47.255Z,5.35
2018-10-21T13:54:23.066Z,4.58
2018-10-21T13:56:56.794Z,5.10
2018-10-21T13:59:30.272Z,8.30
2018-10-21T14:02:03.000Z,5.75
2018-10-21T14:04:36.610Z,5.47
2018-10-21T14:07:13.719Z,6.55
2018-10-21T14:09:45.358Z,3.50
2018-10-21T14:12:16.862Z,8.15
2018-10-21T14:14:49.508Z,5.37
2018-10-21T14:17:23.241Z,3.77
2018-10-21T14:19:54.939Z,4.75
2018-10-21T14:22:29.538Z,4.78
2018-10-21T14:25:02.535Z,4.45
2018-10-21T14:27:41.612Z,6.90
2018-10-21T14:30:15.306Z,4.33
2018-10-21T14:32:47.018Z,5.97
2018-10-21T14:35:18.957Z,3.20
2018-10-21T14:37:49.286Z,5.35
2018-10-21T14:40:22.781Z,4.25
2018-10-21T14:43:00.726Z,4.67
2018-10-21T14:45:33.592Z,4.78
2018-10-21T14:48:05.751Z,4.97
2018-10-21T14:50:37.004Z,5.45
2018-10-21T14:53:09.184Z,7.87
2018-10-21T14:55:40.697Z,5.12
2018-10-21T14:58:13.894Z,4.25
2018-10-21T15:00:45.696Z,5.22
2018-10-21T15:03:19.139Z,5.15
2018-10-21T15:05:49.964Z,3.00
2018-10-21T15:08:25.536Z,4.05
2018-10-21T15:10:57.630Z,4.85
2018-10-21T15:13:29.636Z,5.30
2018-10-21T15:16:01.951Z,3.57
2018-10-21T15:21:43.984Z,6.00
2018-10-21T15:24:18.388Z,4.37
2018-10-21T15:26:51.660Z,3.93
2018-10-21T15:29:24.192Z,5.53
2018-10-21T15:31:55.831Z,5.03
2018-10-21T15:34:27.147Z,5.13
2018-10-21T15:36:58.273Z,5.80
2018-10-21T15:39:33.085Z,5.13
2018-10-21T15:42:07.740Z,3.47
2018-10-21T15:44:38.594Z,4.83
2018-10-21T15:47:12.499Z,4.30
2018-10-21T15:49:44.931Z,4.70
2018-10-21T15:52:21.090Z,4.30
2018-10-21T15:54:53.582Z,2.47
2018-10-21T15:57:26.217Z,5.23
2018-10-21T15:59:58.570Z,4.70
2018-10-21T16:02:30.090Z,5.70
2018-10-21T16:05:03.808Z,6.10
2018-10-21T16:07:36.606Z,4.87
2018-10-21T16:10:09.019Z,4.07
2018-10-21T16:12:39.510Z,3.83
2018-10-21T16:15:15.333Z,4.47
2018-10-21T16:17:51.251Z,3.57
2018-10-21T16:20:24.617Z,4.60
2018-10-21T16:23:02.571Z,4.47
2018-10-21T16:25:33.748Z,4.70
2018-10-21T16:28:11.719Z,4.97
2018-10-21T16:30:45.584Z,5.77
2018-10-21T16:33:18.800Z,5.90
2018-10-21T16:35:49.523Z,6.47
2018-10-21T16:38:21.853Z,3.97
2018-10-21T16:41:00.550Z,7.17
2018-10-21T16:43:34.456Z,4.73
2018-10-21T16:46:05.926Z,10.07
2018-10-21T16:48:42.767Z,11.03
2018-10-21T16:51:17.741Z,5.03
2018-10-21T16:53:49.606Z,4.93
2018-10-21T16:56:22.244Z,6.87
2018-10-21T16:58:54.767Z,4.33
2018-10-21T17:01:30.227Z,4.30
2018-10-21T17:04:04.196Z,4.70
2018-10-21T17:06:37.319Z,3.63
2018-10-21T17:09:15.860Z,6.47
2018-10-21T17:11:49.312Z,6.37
2018-10-21T17:14:20.505Z,5.87
2018-10-21T17:16:53.781Z,5.57
2018-10-21T17:19:27.177Z,5.37
2018-10-21T17:22:03.148Z,6.60
2018-10-21T17:24:34.740Z,5.67
2018-10-21T17:27:06.014Z,8.20
2018-10-21T17:29:39.221Z,4.70
2018-10-21T17:32:13.150Z,7.10
2018-10-21T17:34:46.540Z,8.50
2018-10-21T17:37:19.501Z,5.33
2018-10-21T17:39:53.457Z,3.60
2018-10-21T17:42:24.751Z,6.57
2018-10-21T17:44:58.107Z,5.60
2018-10-21T17:47:29.318Z,5.20
2018-10-21T17:50:01.111Z,6.23
2018-10-21T17:52:32.196Z,5.63
2018-10-21T17:55:03.043Z,4.70
2018-10-21T17:57:35.106Z,7.43
2018-10-21T18:00:08.051Z,6.43
2018-10-21T18:02:38.317Z,6.60
2018-10-21T18:05:11.297Z,9.03
2018-10-21T18:07:42.141Z,7.63
2018-10-21T18:10:13.085Z,4.00
2018-10-21T18:12:43.847Z,5.77
2018-10-21T18:15:14.610Z,4.70
2018-10-21T18:17:45.499Z,5.30
2018-10-21T18:20:16.014Z,5.13
2018-10-21T18:22:46.727Z,5.73
2018-10-21T18:25:17.847Z,10.43
2018-10-21T18:27:48.575Z,5.37
2018-10-21T18:30:19.054Z,6.50
2018-10-21T18:32:49.804Z,10.80
2018-10-21T18:35:20.590Z,5.83
2018-10-21T18:37:51.138Z,16.87
2018-10-21T18:40:21.609Z,8.97
2018-10-21T18:42:52.099Z,6.20
2018-10-21T18:45:22.737Z,6.63
2018-10-21T18:47:53.432Z,5.20
2018-10-21T18:50:23.925Z,7.17
2018-10-21T18:52:54.612Z,6.93
2018-10-21T18:55:25.423Z,5.20
2018-10-21T18:57:56.008Z,8.20
2018-10-21T19:00:26.608Z,6.83
2018-10-21T19:02:57.055Z,5.73
2018-10-21T19:05:29.563Z,5.57
2018-10-21T19:07:59.848Z,8.53
2018-10-21T19:10:30.365Z,6.60
2018-10-21T19:13:01.207Z,4.93
2018-10-21T19:15:31.788Z,6.40
2018-10-21T19:18:02.941Z,4.67
2018-10-21T19:20:33.718Z,7.07
2018-10-21T19:23:04.000Z,6.40
2018-10-21T19:25:34.687Z,8.13
2018-10-21T19:28:05.433Z,10.77
2018-10-21T19:30:35.848Z,10.67
2018-10-21T19:33:06.756Z,7.17
2018-10-21T19:35:37.564Z,7.43
2018-10-21T19:38:08.173Z,8.00
2018-10-21T19:40:40.131Z,6.23
2018-10-21T19:43:10.943Z,7.07
2018-10-21T19:45:41.781Z,7.27
2018-10-21T19:48:12.453Z,5.10
2018-10-21T19:50:44.879Z,5.60
2018-10-21T19:53:15.381Z,6.40
2018-10-21T19:55:46.463Z,5.40
2018-10-21T19:58:17.269Z,9.77
2018-10-21T20:00:48.319Z,8.63
2018-10-21T20:03:20.188Z,8.90
2018-10-21T20:05:51.103Z,9.37
2018-10-21T20:08:21.676Z,8.63
2018-10-21T20:10:52.289Z,7.70
2018-10-21T20:13:22.703Z,8.97
2018-10-21T20:15:53.631Z,7.97
2018-10-21T20:18:24.684Z,6.77
2018-10-21T20:20:54.946Z,10.20
2018-10-21T20:23:25.533Z,7.17
2018-10-21T20:25:56.318Z,8.30
2018-10-21T20:28:26.946Z,8.77
2018-10-21T20:30:57.276Z,8.33
2018-10-21T20:33:27.821Z,9.50
2018-10-21T20:35:58.407Z,9.87
2018-10-21T20:38:28.966Z,13.73
2018-10-21T20:40:59.777Z,8.20
2018-10-21T20:43:30.765Z,9.40
2018-10-21T20:46:01.450Z,8.60
2018-10-21T20:48:32.029Z,9.47
2018-10-21T20:51:03.132Z,8.13
2018-10-21T20:53:33.935Z,10.37
2018-10-21T20:56:05.204Z,9.17
2018-10-21T20:58:35.786Z,10.13
2018-10-21T21:01:06.705Z,6.77
2018-10-21T21:03:37.388Z,10.00
2018-10-21T21:06:08.277Z,7.73
2018-10-21T21:08:39.285Z,5.70
2018-10-21T21:11:10.290Z,6.10
2018-10-21T21:13:40.824Z,9.07
2018-10-21T21:16:11.474Z,6.83
2018-10-21T21:18:42.012Z,6.80
2018-10-21T21:21:12.504Z,9.90
2018-10-21T21:23:43.158Z,7.23
2018-10-21T21:26:13.454Z,9.20
2018-10-21T21:28:43.956Z,12.90
2018-10-21T21:31:14.722Z,7.50
2018-10-21T21:33:45.575Z,9.60
2018-10-21T21:36:17.199Z,8.40
2018-10-21T21:38:48.135Z,6.47
2018-10-21T21:41:18.983Z,10.80
2018-10-21T21:43:49.687Z,8.90
2018-10-21T21:46:20.399Z,9.07
2018-10-21T21:48:50.641Z,6.80
2018-10-21T21:51:21.059Z,9.70
2018-10-21T21:53:51.462Z,8.80
2018-10-21T21:56:22.250Z,10.97
2018-10-21T21:58:53.095Z,11.93
2018-10-21T22:01:23.742Z,7.87
2018-10-21T22:03:55.572Z,8.73
2018-10-21T22:06:25.823Z,9.67
2018-10-21T22:08:56.646Z,8.47
2018-10-21T22:11:26.938Z,10.30
2018-10-21T22:13:58.359Z,8.77
2018-10-21T22:16:29.544Z,6.83
2018-10-21T22:19:00.290Z,7.93
2018-10-21T22:21:31.054Z,6.40
2018-10-21T22:24:01.692Z,6.40
2018-10-21T22:26:32.313Z,8.70
2018-10-21T22:29:02.795Z,8.57
2018-10-21T22:31:33.920Z,6.77
2018-10-21T22:34:04.494Z,7.47
2018-10-21T22:36:34.876Z,8.87
2018-10-21T22:39:06.690Z,6.37
2018-10-21T22:41:37.650Z,7.73
2018-10-21T22:44:08.266Z,8.07
2018-10-21T22:46:38.855Z,7.93
2018-10-21T22:49:09.203Z,9.70
2018-10-21T22:51:39.993Z,7.23
2018-10-21T22:54:10.653Z,8.00
2018-10-21T22:56:41.227Z,6.33
2018-10-21T22:59:12.007Z,7.57
2018-10-21T23:01:42.324Z,9.57
2018-10-21T23:04:12.866Z,5.80
2018-10-21T23:06:43.252Z,8.83
2018-10-21T23:09:13.538Z,7.17
2018-10-21T23:11:44.485Z,6.20
2018-10-21T23:14:14.879Z,6.80
2018-10-21T23:16:45.031Z,7.57
2018-10-21T23:19:26.561Z,9.13
2018-10-21T23:21:57.052Z,6.57
2018-10-21T23:24:29.472Z,7.97
2018-10-21T23:26:59.998Z,6.23
2018-10-21T23:29:30.257Z,7.50
2018-10-21T23:32:00.646Z,8.13
2018-10-21T23:34:31.135Z,6.40
2018-10-21T23:37:01.472Z,7.07
2018-10-21T23:39:32.004Z,8.07
2018-10-21T23:42:02.766Z,6.60
2018-10-21T23:44:33.309Z,6.13
2018-10-21T23:47:04.485Z,6.43
2018-10-21T23:49:35.084Z,6.50
2018-10-21T23:52:07.753Z,7.13
2018-10-21T23:54:38.495Z,6.60
2018-10-21T23:57:09.457Z,6.67
2018-10-21T23:59:40.138Z,7.63
